Time;durP1;ratioP1;P1;durP2;ratioP2;P2;SDS_P1;SDS_P2;PMS_P1;PMS_P2;Temp;Humidity;BMP_temperature;BMP_pressure;BME280_temperature;BME280_humidity;BME280_pressure;Samples;Min_cycle;Max_cycle;Signal;HPM_P1;HPM_P2
2022/06/09 00:02:06;;;;;;;6.35;4.47;;;22.60;54.70;21.70;100288.00;;;;5042071;28;20279;-71
2022/06/09 00:04:52;;;;;;;8.00;4.63;;;22.60;54.80;21.70;100291.00;;;;5057189;28;20120;-71
2022/06/09 00:07:38;;;;;;;5.78;4.60;;;22.60;54.80;21.70;100288.00;;;;5043102;28;20418;-71
2022/06/09 00:10:31;;;;;;;5.93;4.68;;;22.60;54.80;21.70;100285.00;;;;5048621;28;20033;-71
2022/06/09 00:13:17;;;;;;;10.95;5.57;;;22.60;54.80;21.70;100286.00;;;;5061155;28;20616;-71
2022/06/09 00:16:03;;;;;;;7.45;4.70;;;22.60;54.80;21.70;100296.00;;;;5046858;28;20037;-71
2022/06/09 00:18:49;;;;;;;6.70;4.97;;;22.60;54.80;21.70;100293.00;;;;5061867;28;20130;-71
2022/06/09 00:21:35;;;;;;;6.53;4.30;;;22.60;54.80;21.70;100296.00;;;;5059970;28;20110;-71
2022/06/09 00:24:21;;;;;;;7.20;4.55;;;22.60;55.00;21.70;100301.00;;;;5067227;28;20474;-70
2022/06/09 00:27:07;;;;;;;7.60;4.55;;;22.60;54.80;21.70;100306.00;;;;5060383;28;20463;-71
2022/06/09 00:29:53;;;;;;;6.90;4.13;;;22.60;54.80;21.70;100298.00;;;;5062568;28;20052;-71
2022/06/09 00:32:39;;;;;;;6.18;4.10;;;22.60;54.80;21.70;100304.00;;;;5076711;28;20080;-71
2022/06/09 00:35:25;;;;;;;6.43;4.13;;;22.60;54.80;21.60;100302.00;;;;5052188;28;20410;-70
2022/06/09 00:38:12;;;;;;;6.72;4.15;;;22.60;54.80;21.60;100302.00;;;;5049543;28;20048;-71
2022/06/09 00:40:59;;;;;;;7.63;4.03;;;22.60;54.80;21.60;100309.00;;;;5052396;28;20414;-70
2022/06/09 00:43:45;;;;;;;6.10;4.40;;;22.60;54.80;21.60;100313.00;;;;5058653;28;20116;-71
2022/06/09 00:46:31;;;;;;;6.38;4.70;;;22.60;54.80;21.60;100318.00;;;;5058167;28;20068;-70
2022/06/09 00:49:23;;;;;;;7.65;4.32;;;22.60;54.80;21.60;100321.00;;;;5042269;28;20422;-71
2022/06/09 00:52:31;;;;;;;5.63;3.88;;;22.60;54.80;21.60;100321.00;;;;5046334;28;20114;-71
2022/06/09 00:55:20;;;;;;;9.00;3.97;;;22.60;54.80;21.60;100335.00;;;;5038264;28;20062;-70
2022/06/09 00:58:14;;;;;;;5.03;3.70;;;22.60;54.70;21.60;100339.00;;;;5046145;28;20448;-70
2022/06/09 01:01:04;;;;;;;6.05;3.83;;;22.60;54.70;21.60;100339.00;;;;5068394;28;20119;-70
2022/06/09 01:04:07;;;;;;;5.18;3.78;;;22.60;54.70;21.60;100333.00;;;;5075829;28;20123;-71
2022/06/09 01:06:55;;;;;;;5.97;3.45;;;22.50;54.70;21.60;100332.00;;;;5050952;28;20056;-71
2022/06/09 01:09:41;;;;;;;4.28;3.25;;;22.60;54.80;21.60;100330.00;;;;5079267;28;20127;-70
2022/06/09 01:12:30;;;;;;;4.88;3.20;;;22.60;54.70;21.60;100332.00;;;;5057683;28;20449;-71
2022/06/09 01:15:21;;;;;;;6.97;2.95;;;22.50;54.70;21.60;100340.00;;;;5049296;28;20044;-71
2022/06/09 01:18:46;;;;;;;4.00;2.53;;;22.60;54.80;21.60;100331.00;;;;5065376;28;20040;-71
2022/06/09 01:22:09;;;;;;;5.25;3.08;;;22.50;54.70;21.60;100346.00;;;;5059610;28;20502;-70
2022/06/09 01:25:32;;;;;;;4.47;2.70;;;22.50;54.70;21.60;100349.00;;;;5064957;28;20052;-71
2022/06/09 01:28:27;;;;;;;4.00;2.75;;;22.50;54.70;21.60;100347.00;;;;5062751;28;20386;-71
2022/06/09 01:31:37;;;;;;;6.45;3.03;;;22.50;54.70;21.60;100346.00;;;;5056154;28;20133;-71
2022/06/09 01:34:33;;;;;;;4.75;2.78;;;22.50;54.70;21.60;100351.00;;;;5060447;28;20341;-71
2022/06/09 01:37:35;;;;;;;4.60;3.20;;;22.50;54.80;21.60;100360.00;;;;5061301;28;20064;-71
2022/06/09 01:40:21;;;;;;;3.83;2.72;;;22.50;54.80;21.60;100357.00;;;;5057053;28;20379;-71
2022/06/09 01:43:08;;;;;;;5.30;2.83;;;22.50;54.70;21.60;100353.00;;;;5043820;28;20313;-71
2022/06/09 01:46:07;;;;;;;4.78;2.90;;;22.50;54.70;21.60;100355.00;;;;5075092;28;20045;-71
2022/06/09 01:48:55;;;;;;;4.28;2.40;;;22.40;54.70;21.60;100358.00;;;;5060721;28;20040;-71
2022/06/09 01:51:43;;;;;;;4.45;2.28;;;22.50;54.70;21.60;100365.00;;;;5048644;28;20537;-71
2022/06/09 01:54:34;;;;;;;9.07;2.72;;;22.40;54.60;21.60;100356.00;;;;5051622;28;20041;-71
2022/06/09 01:57:26;;;;;;;3.83;2.33;;;22.50;54.70;21.60;100364.00;;;;5061892;28;20036;-71
2022/06/09 02:00:15;;;;;;;4.60;2.65;;;22.50;54.70;21.60;100367.00;;;;5048165;28;20113;-71
2022/06/09 02:03:08;;;;;;;3.20;2.50;;;22.50;54.70;21.60;100362.00;;;;5025464;28;20041;-71
2022/06/09 02:05:54;;;;;;;4.80;2.40;;;22.50;54.60;21.60;100362.00;;;;5054364;28;20136;-71
2022/06/09 02:08:40;;;;;;;4.80;2.55;;;22.50;54.60;21.60;100367.00;;;;5049088;28;20025;-71
2022/06/09 02:11:28;;;;;;;4.00;2.33;;;22.50;54.60;21.60;100365.00;;;;5051858;28;20037;-71
2022/06/09 02:14:14;;;;;;;6.68;2.80;;;22.50;54.70;21.60;100366.00;;;;5065549;28;20107;-71
2022/06/09 02:17:00;;;;;;;4.57;2.47;;;22.50;54.60;21.60;100359.00;;;;5064595;28;20052;-71
2022/06/09 02:19:47;;;;;;;2.97;2.15;;;22.40;54.60;21.60;100375.00;;;;5061117;28;20063;-71
2022/06/09 02:22:33;;;;;;;3.97;2.17;;;22.40;54.60;21.60;100370.00;;;;5044741;28;20037;-71
2022/06/09 02:25:19;;;;;;;6.95;2.67;;;22.50;54.60;21.60;100375.00;;;;5062149;28;20037;-71
2022/06/09 02:28:06;;;;;;;6.63;2.53;;;22.50;54.60;21.60;100381.00;;;;5059925;28;20085;-70
2022/06/09 02:30:52;;;;;;;8.32;2.63;;;22.50;54.60;21.60;100384.00;;;;5072298;28;20036;-71
2022/06/09 02:33:38;;;;;;;4.90;2.47;;;22.50;54.60;21.60;100389.00;;;;5059384;28;20095;-71
2022/06/09 02:36:25;;;;;;;3.08;2.17;;;22.50;54.60;21.60;100386.00;;;;5064462;28;20050;-71
2022/06/09 02:39:11;;;;;;;5.28;2.28;;;22.50;54.60;21.60;100397.00;;;;5061260;28;20036;-71
2022/06/09 02:41:57;;;;;;;4.03;2.13;;;22.50;54.60;21.60;100406.00;;;;5057417;28;20531;-71
2022/06/09 02:44:43;;;;;;;4.40;2.35;;;22.50;54.60;21.60;100406.00;;;;5062222;28;20040;-71
2022/06/09 02:47:29;;;;;;;4.25;2.67;;;22.40;54.50;21.60;100407.00;;;;5056869;28;20398;-71
2022/06/09 02:50:15;;;;;;;4.20;2.75;;;22.50;54.60;21.60;100403.00;;;;5059286;28;20033;-71
2022/06/09 02:53:01;;;;;;;7.00;3.00;;;22.50;54.60;21.60;100410.00;;;;5046571;28;20052;-71
2022/06/09 02:55:48;;;;;;;5.00;2.58;;;22.50;54.60;21.50;100408.00;;;;5062301;28;20160;-71
2022/06/09 02:58:34;;;;;;;5.15;2.80;;;22.50;54.60;21.60;100410.00;;;;5062241;28;20043;-71
2022/06/09 03:01:20;;;;;;;4.00;2.55;;;22.50;54.60;21.50;100409.00;;;;5064093;28;20040;-70
2022/06/09 03:04:07;;;;;;;7.20;3.05;;;22.40;54.50;21.50;100418.00;;;;5050243;28;20082;-71
2022/06/09 03:06:53;;;;;;;7.60;2.58;;;22.50;55.30;21.50;100422.00;;;;5047754;28;20163;-71
2022/06/09 03:09:40;;;;;;;6.72;3.03;;;22.50;54.60;21.50;100418.00;;;;5064841;28;20036;-71
2022/06/09 03:12:26;;;;;;;7.28;3.53;;;22.50;54.60;21.50;100420.00;;;;5058009;28;20500;-71
2022/06/09 03:15:14;;;;;;;6.60;2.83;;;22.40;54.50;21.50;100430.00;;;;5038616;28;20472;-71
2022/06/09 03:18:01;;;;;;;5.53;2.67;;;22.50;54.60;21.50;100437.00;;;;5041401;28;20461;-70
2022/06/09 03:20:47;;;;;;;5.82;2.63;;;22.50;54.60;21.50;100426.00;;;;5045109;28;20040;-71
2022/06/09 03:23:33;;;;;;;5.07;2.58;;;22.40;54.50;21.50;100434.00;;;;5073022;28;20043;-70
2022/06/09 03:26:19;;;;;;;7.85;3.35;;;22.40;54.50;21.50;100434.00;;;;5044108;28;20049;-70
2022/06/09 03:29:05;;;;;;;5.22;2.53;;;22.40;54.50;21.50;100428.00;;;;5043324;28;20099;-70
2022/06/09 03:31:51;;;;;;;3.90;2.88;;;22.40;54.50;21.50;100423.00;;;;5039348;28;20048;-71
2022/06/09 03:34:37;;;;;;;7.80;3.10;;;22.40;54.50;21.50;100430.00;;;;5049387;28;20127;-71
2022/06/09 03:37:24;;;;;;;5.25;3.08;;;22.30;54.50;21.50;100430.00;;;;5057361;28;20549;-70
2022/06/09 03:40:15;;;;;;;7.82;3.10;;;22.40;54.50;21.50;100434.00;;;;5061264;28;20128;-71
2022/06/09 03:43:03;;;;;;;6.80;2.80;;;22.40;54.50;21.50;100432.00;;;;5050998;28;20048;-71
2022/06/09 03:45:50;;;;;;;4.85;2.80;;;22.40;54.50;21.50;100429.00;;;;5068507;28;20044;-70
2022/06/09 03:48:36;;;;;;;7.03;3.00;;;22.40;54.60;21.50;100438.00;;;;5061774;28;20415;-71
2022/06/09 03:51:22;;;;;;;5.78;2.85;;;22.40;54.50;21.50;100439.00;;;;5065730;28;20033;-71
2022/06/09 03:54:08;;;;;;;5.28;2.67;;;22.40;54.60;21.50;100445.00;;;;5063988;28;20470;-71
2022/06/09 03:56:54;;;;;;;6.93;2.53;;;22.40;54.60;21.50;100448.00;;;;5060432;28;20044;-71
2022/06/09 03:59:40;;;;;;;7.03;2.63;;;22.40;54.60;21.50;100459.00;;;;5051493;28;20052;-71
2022/06/09 04:02:26;;;;;;;5.57;2.65;;;22.40;54.60;21.50;100452.00;;;;5050189;28;20319;-71
2022/06/09 04:05:13;;;;;;;5.22;2.85;;;22.30;54.50;21.50;100456.00;;;;5061339;28;20102;-71
2022/06/09 04:08:00;;;;;;;7.87;3.30;;;22.40;54.60;21.50;100455.00;;;;5063482;28;20500;-71
2022/06/09 04:10:48;;;;;;;9.95;2.97;;;22.40;54.60;21.50;100455.00;;;;5051579;28;20106;-71
2022/06/09 04:13:34;;;;;;;;;;;22.40;54.60;21.50;100469.00;;;;5061992;28;20071;-71
2022/06/09 04:16:37;;;;;;;5.90;2.92;;;22.40;54.50;21.50;100462.00;;;;5078310;28;19912;-71
2022/06/09 04:19:23;;;;;;;5.00;2.72;;;22.40;54.40;21.50;100469.00;;;;5052907;28;20036;-71
2022/06/09 04:22:09;;;;;;;8.05;3.08;;;22.40;54.50;21.50;100474.00;;;;5058569;28;20049;-71
2022/06/09 04:24:56;;;;;;;5.03;2.85;;;22.40;54.50;21.50;100479.00;;;;5051947;28;20044;-71
2022/06/09 04:27:42;;;;;;;6.35;2.80;;;22.40;54.50;21.50;100484.00;;;;5060226;28;20119;-70
2022/06/09 04:30:28;;;;;;;7.28;2.85;;;22.40;54.50;21.50;100489.00;;;;5059378;28;20037;-70
2022/06/09 04:33:14;;;;;;;6.82;2.92;;;22.40;54.60;21.50;100486.00;;;;5058201;28;20094;-71
2022/06/09 04:36:00;;;;;;;5.25;2.83;;;22.40;54.60;21.50;100492.00;;;;5068743;28;20398;-71
2022/06/09 04:38:46;;;;;;;8.75;3.20;;;22.40;54.60;21.50;100496.00;;;;5061273;28;20049;-71
2022/06/09 04:41:32;;;;;;;4.90;2.90;;;22.40;54.60;21.50;100501.00;;;;5059182;28;20115;-71
2022/06/09 04:44:18;;;;;;;5.68;3.28;;;22.30;54.60;21.50;100510.00;;;;5049046;28;20044;-71
2022/06/09 04:47:04;;;;;;;8.90;3.38;;;22.40;54.60;21.50;100511.00;;;;5063036;28;20512;-70
2022/06/09 04:49:51;;;;;;;6.78;2.88;;;22.40;54.60;21.50;100513.00;;;;5059429;28;20045;-71
2022/06/09 04:52:37;;;;;;;6.63;3.47;;;22.40;54.60;21.50;100517.00;;;;5063276;28;20115;-71
2022/06/09 04:55:24;;;;;;;6.93;3.47;;;22.40;54.60;21.40;100519.00;;;;5062750;28;20071;-71
2022/06/09 04:58:10;;;;;;;7.75;3.60;;;22.40;54.60;21.50;100518.00;;;;5061088;28;20036;-71
2022/06/09 05:00:56;;;;;;;6.32;3.25;;;22.40;54.60;21.40;100518.00;;;;5048759;28;20049;-71
2022/06/09 05:03:42;;;;;;;9.18;4.45;;;22.40;54.60;21.40;100524.00;;;;5060252;28;20033;-71
2022/06/09 05:06:28;;;;;;;7.10;4.30;;;22.40;54.60;21.40;100531.00;;;;5060201;28;20048;-70
2022/06/09 05:09:15;;;;;;;8.35;4.40;;;22.40;54.60;21.40;100554.00;;;;5048636;28;20686;-71
2022/06/09 05:12:01;;;;;;;8.13;4.35;;;22.30;54.60;21.40;100546.00;;;;5057204;28;20536;-71
2022/06/09 05:14:49;;;;;;;6.75;4.20;;;22.40;54.60;21.40;100554.00;;;;5057938;28;20041;-71
2022/06/09 05:17:35;;;;;;;7.15;3.67;;;22.40;54.60;21.40;100565.00;;;;5057698;28;20036;-70
2022/06/09 05:20:23;;;;;;;9.18;4.30;;;22.30;54.60;21.40;100566.00;;;;5048899;28;20142;-70
2022/06/09 05:23:09;;;;;;;10.38;3.83;;;22.30;54.60;21.40;100567.00;;;;5059087;28;20488;-71
2022/06/09 05:25:57;;;;;;;7.60;4.10;;;22.30;54.60;21.40;100570.00;;;;5057645;28;20078;-70
2022/06/09 05:28:43;;;;;;;9.57;4.53;;;22.30;54.60;21.40;100576.00;;;;5043584;28;20565;-71
2022/06/09 05:31:29;;;;;;;6.65;4.70;;;22.30;54.60;21.40;100581.00;;;;5058847;28;20062;-70
2022/06/09 05:34:16;;;;;;;9.18;5.00;;;22.30;54.60;21.40;100589.00;;;;5062514;28;20048;-71
2022/06/09 05:37:02;;;;;;;7.82;4.55;;;22.30;54.60;21.40;100587.00;;;;5058667;28;20040;-71
2022/06/09 05:45:57;;;;;;;9.15;4.32;;;22.30;54.60;21.40;100600.00;;;;5061783;28;20054;-70
2022/06/09 05:48:44;;;;;;;10.13;5.32;;;22.30;54.60;21.40;100603.00;;;;5042589;28;20529;-70
2022/06/09 05:51:31;;;;;;;6.97;4.60;;;22.30;54.60;21.40;100611.00;;;;5075534;28;20036;-70
2022/06/09 05:54:17;;;;;;;8.55;5.20;;;22.30;54.70;21.40;100607.00;;;;5060023;28;20064;-71
2022/06/09 05:57:03;;;;;;;7.90;4.57;;;22.30;54.60;21.40;100610.00;;;;5046482;28;20040;-70
2022/06/09 05:59:50;;;;;;;9.15;4.57;;;22.30;54.70;21.40;100615.00;;;;5064895;28;20053;-71
2022/06/09 06:02:36;;;;;;;10.98;5.78;;;22.30;54.60;21.40;100622.00;;;;5061021;28;20040;-71
2022/06/09 06:08:27;;;;;;;9.07;5.20;;;22.30;54.60;21.40;100622.00;;;;5063949;28;20112;-71
2022/06/09 06:11:14;;;;;;;7.30;4.65;;;22.30;54.50;21.40;100620.00;;;;5057343;28;20040;-71
2022/06/09 06:14:01;;;;;;;;;;;22.30;54.60;21.30;100620.00;;;;5061594;28;20446;-71
2022/06/09 06:16:47;;;;;;;6.70;5.03;;;22.30;54.60;21.40;100620.00;;;;5058301;28;19982;-70
2022/06/09 06:19:33;;;;;;;10.05;5.30;;;22.30;54.50;21.40;100628.00;;;;5047411;28;20040;-71
2022/06/09 06:22:19;;;;;;;8.68;4.50;;;22.30;54.60;21.40;100632.00;;;;5061136;28;20044;-71
2022/06/09 06:25:06;;;;;;;9.77;5.43;;;22.30;54.60;21.30;100635.00;;;;5061634;28;20036;-71
2022/06/09 06:27:53;;;;;;;7.60;4.97;;;22.30;54.60;21.30;100640.00;;;;5061519;28;20079;-70
2022/06/09 06:30:39;;;;;;;9.73;4.53;;;22.30;54.60;21.30;100649.00;;;;5059635;28;20041;-70
2022/06/09 06:33:25;;;;;;;6.03;4.40;;;22.30;54.60;21.30;100648.00;;;;5060068;28;20040;-70
2022/06/09 06:36:11;;;;;;;7.22;4.82;;;22.30;54.60;21.30;100658.00;;;;5069744;28;20552;-71
2022/06/09 06:38:57;;;;;;;8.10;4.55;;;22.30;54.70;21.30;100653.00;;;;5062774;28;20048;-70
2022/06/09 06:41:43;;;;;;;6.53;4.18;;;22.30;54.70;21.30;100656.00;;;;5044966;28;20580;-71
2022/06/09 06:44:29;;;;;;;11.00;5.13;;;22.30;54.70;21.30;100667.00;;;;5048209;28;20040;-70
2022/06/09 06:47:15;;;;;;;5.68;4.15;;;22.30;54.70;21.30;100667.00;;;;5060120;28;20133;-70
2022/06/09 06:50:01;;;;;;;8.10;3.95;;;22.30;54.70;21.30;100668.00;;;;5061989;28;20043;-70
2022/06/09 06:52:48;;;;;;;5.85;4.05;;;22.20;54.70;21.30;100669.00;;;;5057940;28;20407;-71
2022/06/09 06:55:34;;;;;;;8.52;4.50;;;22.20;54.60;21.30;100678.00;;;;5049142;28;20335;-70
2022/06/09 06:58:20;;;;;;;7.03;3.85;;;22.20;54.60;21.30;100681.00;;;;5059713;28;20115;-71
2022/06/09 07:01:06;;;;;;;5.72;3.65;;;22.20;54.60;21.30;100692.00;;;;5057587;28;20041;-70
2022/06/09 07:03:54;;;;;;;6.60;3.65;;;22.20;54.60;21.30;100691.00;;;;5063693;28;20381;-71
2022/06/09 07:06:40;;;;;;;6.47;3.60;;;22.20;54.70;21.30;100695.00;;;;5044748;28;20045;-71
2022/06/09 07:09:26;;;;;;;6.82;4.03;;;22.30;54.70;21.30;100703.00;;;;5062189;28;20041;-71
2022/06/09 07:12:12;;;;;;;6.10;3.22;;;22.30;54.70;21.40;100699.00;;;;5057965;28;20402;-71
2022/06/09 07:14:58;;;;;;;6.47;4.05;;;22.20;54.70;21.30;100701.00;;;;5065950;28;20040;-71
2022/06/09 07:17:44;;;;;;;6.38;3.50;;;22.20;54.70;21.40;100712.00;;;;5049175;28;20561;-70
2022/06/09 07:20:30;;;;;;;6.80;3.38;;;22.30;54.70;21.40;100710.00;;;;5066667;28;20055;-70
2022/06/09 07:23:16;;;;;;;6.32;2.88;;;22.30;54.70;21.40;100716.00;;;;5075546;28;20036;-71
2022/06/09 07:26:03;;;;;;;3.20;2.85;;;22.30;54.70;21.40;100720.00;;;;5062988;28;20036;-70
2022/06/09 07:28:49;;;;;;;9.10;3.28;;;22.30;54.70;21.40;100732.00;;;;5073036;28;20037;-70
2022/06/09 07:31:35;;;;;;;7.32;3.10;;;22.30;54.60;21.40;100723.00;;;;5061800;28;20434;-71
2022/06/09 07:34:21;;;;;;;5.80;3.50;;;22.30;54.70;21.40;100725.00;;;;5061722;28;20044;-71
2022/06/09 07:37:07;;;;;;;5.13;2.67;;;22.30;54.70;21.40;100732.00;;;;5049870;28;20044;-71
2022/06/09 07:39:53;;;;;;;4.03;2.88;;;22.30;54.60;21.40;100742.00;;;;5047712;28;20053;-70
2022/06/09 07:42:39;;;;;;;4.28;2.45;;;22.30;54.60;21.40;100740.00;;;;5062760;28;20075;-71
2022/06/09 07:45:25;;;;;;;5.85;3.00;;;22.30;54.70;21.40;100755.00;;;;5064708;28;20429;-71
2022/06/09 07:48:11;;;;;;;4.50;2.83;;;22.30;54.60;21.40;100755.00;;;;5050319;28;20032;-71
2022/06/09 07:50:57;;;;;;;6.00;2.97;;;22.30;54.60;21.40;100760.00;;;;5048357;28;20481;-71
2022/06/09 07:53:44;;;;;;;5.53;2.67;;;22.40;54.70;21.40;100760.00;;;;5064330;28;20090;-71
2022/06/09 07:56:32;;;;;;;4.32;2.28;;;22.40;54.70;21.40;100768.00;;;;5054295;28;20127;-70
2022/06/09 07:59:18;;;;;;;4.97;2.80;;;22.40;54.60;21.40;100774.00;;;;5054555;28;20048;-70
2022/06/09 08:02:04;;;;;;;5.88;2.70;;;22.40;54.70;21.40;100773.00;;;;5059356;28;20482;-70
2022/06/09 08:04:50;;;;;;;3.88;2.42;;;22.40;54.60;21.40;100771.00;;;;5078511;28;20170;-70
2022/06/09 08:07:36;;;;;;;3.75;2.75;;;22.40;54.60;21.40;100780.00;;;;5062476;28;20043;-71
2022/06/09 08:10:26;;;;;;;6.70;2.72;;;22.30;54.60;21.40;100779.00;;;;5064730;28;20414;-71
2022/06/09 08:13:12;;;;;;;4.43;2.40;;;22.40;54.60;21.40;100777.00;;;;5074588;28;20622;-71
2022/06/09 08:15:59;;;;;;;4.93;2.33;;;22.40;54.60;21.40;100784.00;;;;5047582;28;20457;-71
2022/06/09 08:18:45;;;;;;;4.85;2.33;;;22.30;54.50;21.40;100778.00;;;;5049852;28;20066;-70
2022/06/09 08:21:31;;;;;;;4.78;2.50;;;22.40;54.60;21.40;100790.00;;;;5068044;28;20100;-70
2022/06/09 08:24:17;;;;;;;5.43;2.38;;;22.40;54.50;21.40;100797.00;;;;5070847;28;20452;-71
2022/06/09 08:27:04;;;;;;;3.58;2.20;;;22.40;54.60;21.40;100790.00;;;;5061522;28;20485;-71
2022/06/09 08:29:51;;;;;;;4.60;2.03;;;22.40;54.50;21.40;100796.00;;;;5048174;28;20091;-71
2022/06/09 08:32:37;;;;;;;5.23;2.00;;;22.40;54.50;21.40;100800.00;;;;5040927;28;20087;-71
2022/06/09 08:35:23;;;;;;;3.03;1.85;;;22.40;54.50;21.40;100804.00;;;;5064374;28;20040;-71
2022/06/09 08:38:09;;;;;;;3.20;2.03;;;22.40;54.50;21.40;100812.00;;;;5060195;28;20032;-71
2022/06/09 08:41:18;;;;;;;5.03;1.83;;;22.40;54.50;21.50;100815.00;;;;5043116;28;20102;-71
2022/06/09 08:44:23;;;;;;;4.68;1.90;;;22.40;54.50;21.40;100807.00;;;;5057960;28;20037;-71
2022/06/09 08:47:35;;;;;;;5.07;1.70;;;22.50;54.60;21.40;100809.00;;;;5047706;28;20524;-71
2022/06/09 08:50:31;;;;;;;4.63;1.70;;;22.50;54.60;21.40;100814.00;;;;5057985;28;20036;-71
2022/06/09 08:53:32;;;;;;;5.35;2.05;;;22.40;54.40;21.40;100825.00;;;;5051708;28;20125;-71
2022/06/09 08:56:22;;;;;;;3.75;1.50;;;22.40;54.40;21.40;100828.00;;;;5048013;28;20052;-71
2022/06/09 08:59:15;;;;;;;2.70;1.58;;;22.40;54.40;21.40;100822.00;;;;5053310;28;20452;-71
2022/06/09 09:02:10;;;;;;;2.97;1.60;;;22.50;54.40;21.50;100829.00;;;;5048751;28;20098;-71
2022/06/09 09:06:09;;;;;;;3.60;1.60;;;22.40;54.30;21.50;100832.00;;;;5059049;28;20048;-70
2022/06/09 09:09:34;;;;;;;3.50;1.52;;;22.50;54.40;21.50;100832.00;;;;4992953;28;20623;-71
2022/06/09 09:12:54;;;;;;;2.60;1.48;;;22.50;54.40;21.50;100832.00;;;;4974393;28;20129;-70
2022/06/09 09:15:45;;;;;;;2.03;1.20;;;22.50;54.40;21.50;100830.00;;;;5053469;28;20425;-71
2022/06/09 09:19:13;;;;;;;2.97;1.30;;;22.50;54.40;21.50;100831.00;;;;5057383;28;20037;-71
2022/06/09 09:22:11;;;;;;;3.58;1.45;;;22.50;54.30;21.50;100833.00;;;;5066926;28;20036;-71
2022/06/09 09:25:23;;;;;;;2.83;1.30;;;22.60;54.40;21.50;100849.00;;;;5066681;28;20049;-71
2022/06/09 09:28:23;;;;;;;3.85;1.38;;;22.50;54.30;21.50;100849.00;;;;5059593;28;20059;-71
2022/06/09 09:31:28;;;;;;;2.38;1.05;;;22.50;54.20;21.50;100846.00;;;;5044503;28;20475;-71
2022/06/09 09:34:22;;;;;;;2.78;1.10;;;22.50;54.20;21.50;100844.00;;;;5049429;28;20494;-71
2022/06/09 09:37:22;;;;;;;2.47;1.00;;;22.60;54.30;21.50;100851.00;;;;5041400;28;20497;-71
2022/06/09 09:40:28;;;;;;;2.40;1.10;;;22.50;54.20;21.50;100863.00;;;;5061233;28;20060;-71
2022/06/09 09:43:23;;;;;;;3.40;1.08;;;22.60;54.20;21.50;100854.00;;;;5049884;28;20051;-71
2022/06/09 09:46:31;;;;;;;1.55;0.90;;;22.60;54.20;21.50;100856.00;;;;5048175;28;20470;-71
2022/06/09 09:49:43;;;;;;;2.00;1.23;;;22.60;54.20;21.50;100856.00;;;;5045170;28;20120;-71
2022/06/09 09:52:41;;;;;;;4.47;1.00;;;22.60;54.00;21.50;100858.00;;;;5051839;28;20282;-71
2022/06/09 09:55:38;;;;;;;2.42;1.08;;;22.60;54.00;21.50;100867.00;;;;5049727;28;20454;-71
2022/06/09 09:58:25;;;;;;;2.00;1.10;;;22.60;53.80;21.50;100862.00;;;;5046514;28;20035;-71
2022/06/09 10:01:14;;;;;;;1.63;1.02;;;22.60;53.90;21.50;100868.00;;;;5039330;28;20033;-71
2022/06/09 10:10:26;;;;;;;2.65;0.77;;;22.60;53.80;21.50;100866.00;;;;5040389;28;20043;-71
2022/06/09 10:13:16;;;;;;;1.77;0.80;;;22.60;53.80;21.50;100877.00;;;;5040876;28;20412;-71
2022/06/09 10:16:03;;;;;;;1.52;0.70;;;22.60;53.80;21.50;100880.00;;;;5031736;28;20041;-71
2022/06/09 10:18:52;;;;;;;1.55;0.70;;;22.50;53.80;21.50;100881.00;;;;5035437;28;20119;-72
2022/06/09 10:21:53;;;;;;;1.27;0.70;;;22.60;53.80;21.50;100876.00;;;;5041450;28;20099;-72
2022/06/09 10:25:02;;;;;;;1.10;0.80;;;22.60;53.70;21.50;100876.00;;;;5028751;28;20037;-72
2022/06/09 10:27:52;;;;;;;1.52;0.90;;;22.60;53.70;21.50;100886.00;;;;5040127;28;20407;-73
2022/06/09 10:30:53;;;;;;;2.63;0.82;;;22.60;53.70;21.50;100882.00;;;;5060221;28;20375;-72
2022/06/09 10:34:07;;;;;;;1.77;0.70;;;22.60;53.70;21.50;100892.00;;;;5042639;28;20037;-73
2022/06/09 10:37:27;;;;;;;1.38;0.65;;;22.60;53.70;21.50;100892.00;;;;5046302;28;20056;-73
2022/06/09 10:40:53;;;;;;;1.67;0.60;;;22.70;53.70;21.50;100887.00;;;;5032356;28;20094;-71
2022/06/09 10:44:06;;;;;;;0.95;0.60;;;22.70;53.50;21.50;100882.00;;;;5039306;28;20544;-71
2022/06/09 10:57:03;;;;;;;0.40;0.40;;;22.70;53.50;21.60;100906.00;;;;5047860;28;20040;-72
2022/06/09 10:59:59;;;;;;;1.63;0.40;;;22.70;53.50;21.60;100909.00;;;;5061960;28;20041;-71
2022/06/09 11:02:54;;;;;;;1.50;0.45;;;22.70;53.30;21.60;100917.00;;;;5060550;28;20483;-71
2022/06/09 11:05:59;;;;;;;0.98;0.60;;;22.70;53.30;21.60;100917.00;;;;5050350;28;20214;-71
2022/06/09 11:09:10;;;;;;;1.80;0.55;;;22.70;53.40;21.60;100925.00;;;;5062174;28;20094;-72
2022/06/09 11:12:25;;;;;;;0.93;0.45;;;22.70;53.30;21.60;100933.00;;;;5059268;28;20044;-72
2022/06/09 11:15:20;;;;;;;3.53;1.20;;;22.70;53.30;21.60;100927.00;;;;5037662;28;20033;-72
2022/06/09 11:18:28;;;;;;;1.38;0.50;;;22.70;53.30;21.60;100927.00;;;;5048896;28;20046;-71
2022/06/09 11:21:36;;;;;;;1.45;0.40;;;22.70;53.20;21.60;100935.00;;;;5048344;28;20045;-71
2022/06/09 11:24:33;;;;;;;0.50;0.50;;;22.70;53.20;21.60;100936.00;;;;5048368;28;20232;-71
2022/06/09 11:27:50;;;;;;;3.63;0.50;;;22.80;53.10;21.60;100925.00;;;;5056525;28;20367;-71
2022/06/09 11:31:08;;;;;;;0.80;0.30;;;22.80;53.20;21.60;100934.00;;;;5048319;28;20131;-71
2022/06/09 11:34:34;;;;;;;0.90;0.50;;;22.80;53.00;21.60;100947.00;;;;5037136;28;20051;-71
2022/06/09 11:37:43;;;;;;;1.27;0.57;;;22.80;53.00;21.60;100960.00;;;;5046307;28;20032;-71
2022/06/09 11:40:51;;;;;;;1.48;0.50;;;22.70;52.90;21.60;100967.00;;;;5061767;28;20076;-71
2022/06/09 11:44:08;;;;;;;2.15;0.70;;;22.80;52.90;21.60;100978.00;;;;5044501;28;20045;-71
2022/06/09 11:46:57;;;;;;;1.15;0.50;;;22.80;52.90;21.60;100982.00;;;;5046535;28;20476;-71
2022/06/09 11:49:55;;;;;;;1.33;0.50;;;22.80;52.90;21.60;100982.00;;;;5051134;28;20159;-71
2022/06/09 11:52:45;;;;;;;1.10;0.50;;;22.80;52.90;21.70;100985.00;;;;5032818;28;20273;-71
2022/06/09 11:58:44;;;;;;;1.25;0.60;;;22.80;52.90;21.70;100988.00;;;;5042299;28;20037;-71
2022/06/09 12:01:39;;;;;;;0.88;0.40;;;22.80;52.80;21.70;100999.00;;;;5045382;28;20045;-71
2022/06/09 12:04:58;;;;;;;1.23;0.45;;;22.80;52.80;21.70;100996.00;;;;5054555;28;20041;-71
2022/06/09 12:08:33;;;;;;;2.13;0.60;;;22.80;52.80;21.70;101010.00;;;;5044740;28;20095;-71
2022/06/09 12:11:21;;;;;;;1.52;0.50;;;22.80;52.80;21.70;100996.00;;;;5053873;28;20036;-71
2022/06/09 12:14:34;;;;;;;1.30;0.38;;;22.80;52.80;21.70;101006.00;;;;5041932;28;20036;-71
2022/06/09 12:17:30;;;;;;;1.20;0.60;;;22.80;52.90;21.70;101017.00;;;;5034451;28;20040;-71
2022/06/09 12:21:01;;;;;;;1.30;0.50;;;22.80;52.90;21.70;101020.00;;;;5039923;28;20037;-71
2022/06/09 12:23:50;;;;;;;1.30;0.55;;;22.80;53.00;21.70;101017.00;;;;5041517;28;20054;-71
2022/06/09 12:26:36;;;;;;;1.73;0.70;;;22.60;52.90;21.70;101027.00;;;;5041159;28;20049;-71
2022/06/09 12:30:05;;;;;;;1.38;0.65;;;22.80;53.00;21.70;101028.00;;;;5048524;28;20479;-71
2022/06/09 12:33:11;;;;;;;0.80;0.52;;;22.80;53.00;21.70;101022.00;;;;5053896;28;20365;-71
2022/06/09 12:36:12;;;;;;;1.67;0.50;;;22.80;53.00;21.70;101028.00;;;;5033581;28;20045;-71
2022/06/09 12:38:58;;;;;;;2.83;0.57;;;22.80;53.00;21.70;101022.00;;;;5033910;28;20040;-71
2022/06/09 12:41:50;;;;;;;2.03;0.60;;;22.80;53.00;21.70;101031.00;;;;5052190;28;20100;-71
2022/06/09 12:44:43;;;;;;;1.20;0.60;;;22.80;53.00;21.70;101032.00;;;;5046809;28;20037;-71
2022/06/09 12:47:29;;;;;;;1.77;0.60;;;22.70;52.90;21.70;101034.00;;;;5028081;28;20078;-71
2022/06/09 12:50:34;;;;;;;1.70;0.60;;;22.80;53.00;21.70;101034.00;;;;5057651;28;20032;-71
2022/06/09 12:53:27;;;;;;;2.13;0.70;;;22.80;53.10;21.70;101045.00;;;;5044766;28;20111;-71
2022/06/09 12:56:40;;;;;;;2.10;0.95;;;22.80;53.00;21.70;101047.00;;;;5044534;28;20474;-71
2022/06/09 12:59:38;;;;;;;2.55;0.80;;;22.80;53.20;21.70;101060.00;;;;5045119;28;20087;-71
2022/06/09 13:02:27;;;;;;;2.33;1.00;;;22.80;53.20;21.70;101065.00;;;;5037534;28;20037;-71
2022/06/09 13:05:21;;;;;;;1.80;0.90;;;22.80;53.10;21.70;101067.00;;;;5057623;28;20041;-71
2022/06/09 13:08:25;;;;;;;1.98;0.80;;;22.80;53.10;21.70;101075.00;;;;5058624;28;20041;-71